sensor_id;sensor_type;location;lat;lon;timestamp;temperature;humidity
13115;DHT22;6623;52.120;8.660;2022-11-23T00:00:00;8.00;80.10
13115;DHT22;6623;52.120;8.660;2022-11-23T00:02:26;8.00;80.00
13115;DHT22;6623;52.120;8.660;2022-11-23T00:04:52;7.90;80.70
13115;DHT22;6623;52.120;8.660;2022-11-23T00:07:17;8.30;80.40
13115;DHT22;6623;52.120;8.660;2022-11-23T00:09:43;7.90;80.10
13115;DHT22;6623;52.120;8.660;2022-11-23T00:12:08;7.90;80.00
13115;DHT22;6623;52.120;8.660;2022-11-23T00:14:34;7.90;79.80
13115;DHT22;6623;52.120;8.660;2022-11-23T00:16:59;7.80;79.80
13115;DHT22;6623;52.120;8.660;2022-11-23T00:19:25;7.80;79.90
13115;DHT22;6623;52.120;8.660;2022-11-23T00:21:50;7.80;80.10
13115;DHT22;6623;52.120;8.660;2022-11-23T00:24:16;7.80;80.30
13115;DHT22;6623;52.120;8.660;2022-11-23T00:26:42;7.80;80.50
13115;DHT22;6623;52.120;8.660;2022-11-23T00:29:07;7.80;80.60
13115;DHT22;6623;52.120;8.660;2022-11-23T00:31:33;7.90;80.80
13115;DHT22;6623;52.120;8.660;2022-11-23T00:33:58;7.90;80.90
13115;DHT22;6623;52.120;8.660;2022-11-23T00:36:25;8.00;81.00
13115;DHT22;6623;52.120;8.660;2022-11-23T00:38:52;8.00;81.60
13115;DHT22;6623;52.120;8.660;2022-11-23T00:41:24;8.00;81.00
13115;DHT22;6623;52.120;8.660;2022-11-23T00:43:50;8.00;81.00
13115;DHT22;6623;52.120;8.660;2022-11-23T00:46:25;8.10;81.00
13115;DHT22;6623;52.120;8.660;2022-11-23T00:48:52;8.10;81.00
13115;DHT22;6623;52.120;8.660;2022-11-23T00:51:21;8.80;81.50
13115;DHT22;6623;52.120;8.660;2022-11-23T00:53:48;8.10;81.10
13115;DHT22;6623;52.120;8.660;2022-11-23T00:56:13;8.10;81.10
13115;DHT22;6623;52.120;8.660;2022-11-23T00:58:39;8.10;81.10
13115;DHT22;6623;52.120;8.660;2022-11-23T01:01:13;8.10;81.20
13115;DHT22;6623;52.120;8.660;2022-11-23T01:03:43;8.20;81.30
13115;DHT22;6623;52.120;8.660;2022-11-23T01:06:18;8.20;81.40
13115;DHT22;6623;52.120;8.660;2022-11-23T01:08:51;8.20;81.40
13115;DHT22;6623;52.120;8.660;2022-11-23T01:11:21;8.20;81.50
13115;DHT22;6623;52.120;8.660;2022-11-23T01:13:47;8.20;81.50
13115;DHT22;6623;52.120;8.660;2022-11-23T01:16:22;8.20;81.60
13115;DHT22;6623;52.120;8.660;2022-11-23T01:18:54;8.20;81.60
13115;DHT22;6623;52.120;8.660;2022-11-23T01:21:20;8.20;81.60
13115;DHT22;6623;52.120;8.660;2022-11-23T01:23:45;8.30;81.70
13115;DHT22;6623;52.120;8.660;2022-11-23T01:26:11;8.30;81.70
13115;DHT22;6623;52.120;8.660;2022-11-23T01:28:38;8.20;81.80
13115;DHT22;6623;52.120;8.660;2022-11-23T01:31:15;8.30;81.90
13115;DHT22;6623;52.120;8.660;2022-11-23T01:33:42;8.20;81.90
13115;DHT22;6623;52.120;8.660;2022-11-23T01:36:18;8.30;82.00
13115;DHT22;6623;52.120;8.660;2022-11-23T01:38:45;8.30;82.00
13115;DHT22;6623;52.120;8.660;2022-11-23T01:41:22;8.30;82.10
13115;DHT22;6623;52.120;8.660;2022-11-23T01:43:49;8.30;82.10
13115;DHT22;6623;52.120;8.660;2022-11-23T01:46:16;8.30;82.10
13115;DHT22;6623;52.120;8.660;2022-11-23T01:48:52;8.30;82.20
13115;DHT22;6623;52.120;8.660;2022-11-23T01:51:22;8.30;82.30
13115;DHT22;6623;52.120;8.660;2022-11-23T01:53:50;8.30;82.40
13115;DHT22;6623;52.120;8.660;2022-11-23T01:56:19;8.30;82.40
13115;DHT22;6623;52.120;8.660;2022-11-23T01:58:51;8.70;82.70
13115;DHT22;6623;52.120;8.660;2022-11-23T02:01:17;8.30;82.50
13115;DHT22;6623;52.120;8.660;2022-11-23T02:03:43;8.30;82.60
13115;DHT22;6623;52.120;8.660;2022-11-23T02:06:14;8.30;82.60
13115;DHT22;6623;52.120;8.660;2022-11-23T02:08:41;8.30;82.70
13115;DHT22;6623;52.120;8.660;2022-11-23T02:11:07;8.30;82.70
13115;DHT22;6623;52.120;8.660;2022-11-23T02:13:33;8.30;82.70
13115;DHT22;6623;52.120;8.660;2022-11-23T02:16:00;8.40;82.80
13115;DHT22;6623;52.120;8.660;2022-11-23T02:18:29;8.30;82.80
13115;DHT22;6623;52.120;8.660;2022-11-23T02:20:57;8.30;82.70
13115;DHT22;6623;52.120;8.660;2022-11-23T02:26:04;8.40;82.90
13115;DHT22;6623;52.120;8.660;2022-11-23T02:28:38;8.40;82.80
13115;DHT22;6623;52.120;8.660;2022-11-23T02:31:06;8.40;82.80
13115;DHT22;6623;52.120;8.660;2022-11-23T02:33:32;8.40;82.80
13115;DHT22;6623;52.120;8.660;2022-11-23T02:35:59;8.40;82.80
13115;DHT22;6623;52.120;8.660;2022-11-23T02:38:29;8.40;82.80
13115;DHT22;6623;52.120;8.660;2022-11-23T02:40:55;8.40;82.70
13115;DHT22;6623;52.120;8.660;2022-11-23T02:43:21;8.40;82.70
13115;DHT22;6623;52.120;8.660;2022-11-23T02:45:55;8.50;82.80
13115;DHT22;6623;52.120;8.660;2022-11-23T02:48:21;8.40;82.70
13115;DHT22;6623;52.120;8.660;2022-11-23T02:50:47;8.50;82.70
13115;DHT22;6623;52.120;8.660;2022-11-23T02:53:12;8.40;82.60
13115;DHT22;6623;52.120;8.660;2022-11-23T02:55:38;9.10;83.00
13115;DHT22;6623;52.120;8.660;2022-11-23T02:58:05;8.50;82.60
13115;DHT22;6623;52.120;8.660;2022-11-23T03:00:31;8.50;82.60
13115;DHT22;6623;52.120;8.660;2022-11-23T03:02:59;8.50;82.60
13115;DHT22;6623;52.120;8.660;2022-11-23T03:05:25;8.50;82.60
13115;DHT22;6623;52.120;8.660;2022-11-23T03:07:50;8.50;82.60
13115;DHT22;6623;52.120;8.660;2022-11-23T03:10:16;8.50;83.20
13115;DHT22;6623;52.120;8.660;2022-11-23T03:12:42;8.50;82.50
13115;DHT22;6623;52.120;8.660;2022-11-23T03:15:08;8.50;82.40
13115;DHT22;6623;52.120;8.660;2022-11-23T03:17:34;8.50;82.30
13115;DHT22;6623;52.120;8.660;2022-11-23T03:19:59;8.50;82.30
13115;DHT22;6623;52.120;8.660;2022-11-23T03:22:25;8.50;82.30
13115;DHT22;6623;52.120;8.660;2022-11-23T03:24:51;8.50;82.40
13115;DHT22;6623;52.120;8.660;2022-11-23T03:27:17;8.50;82.40
13115;DHT22;6623;52.120;8.660;2022-11-23T03:29:42;8.50;82.50
13115;DHT22;6623;52.120;8.660;2022-11-23T03:32:08;8.50;82.60
13115;DHT22;6623;52.120;8.660;2022-11-23T03:34:33;8.50;82.70
13115;DHT22;6623;52.120;8.660;2022-11-23T03:36:59;8.60;82.80
13115;DHT22;6623;52.120;8.660;2022-11-23T03:39:25;8.50;82.90
13115;DHT22;6623;52.120;8.660;2022-11-23T03:41:50;8.50;82.90
13115;DHT22;6623;52.120;8.660;2022-11-23T03:44:16;8.50;83.00
13115;DHT22;6623;52.120;8.660;2022-11-23T03:46:41;8.50;83.00
13115;DHT22;6623;52.120;8.660;2022-11-23T03:49:07;8.50;83.10
13115;DHT22;6623;52.120;8.660;2022-11-23T03:51:32;8.50;83.20
13115;DHT22;6623;52.120;8.660;2022-11-23T03:53:58;8.50;83.20
13115;DHT22;6623;52.120;8.660;2022-11-23T03:56:23;8.50;83.20
13115;DHT22;6623;52.120;8.660;2022-11-23T03:58:49;8.50;83.30
13115;DHT22;6623;52.120;8.660;2022-11-23T04:01:15;8.50;83.20
13115;DHT22;6623;52.120;8.660;2022-11-23T04:03:40;8.50;83.30
13115;DHT22;6623;52.120;8.660;2022-11-23T04:06:06;8.60;83.40
13115;DHT22;6623;52.120;8.660;2022-11-23T04:08:31;8.50;83.30
13115;DHT22;6623;52.120;8.660;2022-11-23T04:10:57;8.50;83.40
13115;DHT22;6623;52.120;8.660;2022-11-23T04:13:24;8.50;83.40
13115;DHT22;6623;52.120;8.660;2022-11-23T04:15:49;8.50;83.50
13115;DHT22;6623;52.120;8.660;2022-11-23T04:18:15;8.50;83.60
13115;DHT22;6623;52.120;8.660;2022-11-23T04:20:41;8.50;83.60
13115;DHT22;6623;52.120;8.660;2022-11-23T04:23:07;8.50;83.70
13115;DHT22;6623;52.120;8.660;2022-11-23T04:25:33;8.50;83.70
13115;DHT22;6623;52.120;8.660;2022-11-23T04:27:58;8.50;83.70
13115;DHT22;6623;52.120;8.660;2022-11-23T04:30:24;8.50;83.80
13115;DHT22;6623;52.120;8.660;2022-11-23T04:32:49;8.50;83.90
13115;DHT22;6623;52.120;8.660;2022-11-23T04:35:15;8.50;84.00
13115;DHT22;6623;52.120;8.660;2022-11-23T04:37:41;8.50;84.10
13115;DHT22;6623;52.120;8.660;2022-11-23T04:40:07;8.40;84.10
13115;DHT22;6623;52.120;8.660;2022-11-23T04:42:33;8.50;84.10
13115;DHT22;6623;52.120;8.660;2022-11-23T04:44:58;8.50;84.20
13115;DHT22;6623;52.120;8.660;2022-11-23T04:47:24;8.50;84.30
13115;DHT22;6623;52.120;8.660;2022-11-23T04:49:50;8.50;84.30
13115;DHT22;6623;52.120;8.660;2022-11-23T04:52:15;9.80;84.90
13115;DHT22;6623;52.120;8.660;2022-11-23T04:54:41;8.40;84.00
13115;DHT22;6623;52.120;8.660;2022-11-23T04:57:07;8.40;84.00
13115;DHT22;6623;52.120;8.660;2022-11-23T04:59:33;8.40;84.00
13115;DHT22;6623;52.120;8.660;2022-11-23T05:01:58;8.40;84.00
13115;DHT22;6623;52.120;8.660;2022-11-23T05:04:24;8.30;83.90
13115;DHT22;6623;52.120;8.660;2022-11-23T05:06:50;8.30;83.80
13115;DHT22;6623;52.120;8.660;2022-11-23T05:09:15;8.30;83.70
13115;DHT22;6623;52.120;8.660;2022-11-23T05:11:41;8.30;83.70
13115;DHT22;6623;52.120;8.660;2022-11-23T05:14:06;8.20;83.70
13115;DHT22;6623;52.120;8.660;2022-11-23T05:16:32;8.20;83.80
13115;DHT22;6623;52.120;8.660;2022-11-23T05:18:57;8.10;83.50
13115;DHT22;6623;52.120;8.660;2022-11-23T05:21:23;8.10;83.30
13115;DHT22;6623;52.120;8.660;2022-11-23T05:23:49;8.10;83.30
13115;DHT22;6623;52.120;8.660;2022-11-23T05:26:14;8.00;83.40
13115;DHT22;6623;52.120;8.660;2022-11-23T05:28:40;8.00;83.50
13115;DHT22;6623;52.120;8.660;2022-11-23T05:31:05;8.00;83.50
13115;DHT22;6623;52.120;8.660;2022-11-23T05:33:31;7.90;83.40
13115;DHT22;6623;52.120;8.660;2022-11-23T05:35:57;7.90;84.10
13115;DHT22;6623;52.120;8.660;2022-11-23T05:38:22;7.90;83.60
13115;DHT22;6623;52.120;8.660;2022-11-23T05:40:48;7.90;83.70
13115;DHT22;6623;52.120;8.660;2022-11-23T05:43:13;7.90;83.80
13115;DHT22;6623;52.120;8.660;2022-11-23T05:45:39;7.90;83.80
13115;DHT22;6623;52.120;8.660;2022-11-23T05:48:05;7.90;83.80
13115;DHT22;6623;52.120;8.660;2022-11-23T05:50:30;7.90;83.70
13115;DHT22;6623;52.120;8.660;2022-11-23T05:52:57;7.90;83.70
13115;DHT22;6623;52.120;8.660;2022-11-23T05:55:23;7.90;83.80
13115;DHT22;6623;52.120;8.660;2022-11-23T05:57:49;7.90;83.90
13115;DHT22;6623;52.120;8.660;2022-11-23T06:00:15;7.90;84.10
13115;DHT22;6623;52.120;8.660;2022-11-23T06:02:40;7.90;84.20
13115;DHT22;6623;52.120;8.660;2022-11-23T06:05:06;7.90;84.30
13115;DHT22;6623;52.120;8.660;2022-11-23T06:07:33;7.90;84.50
13115;DHT22;6623;52.120;8.660;2022-11-23T06:09:58;8.00;84.70
13115;DHT22;6623;52.120;8.660;2022-11-23T06:12:24;8.00;84.80
13115;DHT22;6623;52.120;8.660;2022-11-23T06:14:50;8.10;84.90
13115;DHT22;6623;52.120;8.660;2022-11-23T06:17:15;8.10;85.00
13115;DHT22;6623;52.120;8.660;2022-11-23T06:19:41;8.10;85.00
13115;DHT22;6623;52.120;8.660;2022-11-23T06:22:07;8.10;85.00
13115;DHT22;6623;52.120;8.660;2022-11-23T06:24:33;8.20;85.00
13115;DHT22;6623;52.120;8.660;2022-11-23T06:26:58;8.20;84.90
13115;DHT22;6623;52.120;8.660;2022-11-23T06:29:25;8.20;85.00
13115;DHT22;6623;52.120;8.660;2022-11-23T06:31:51;8.20;85.00
13115;DHT22;6623;52.120;8.660;2022-11-23T06:34:16;8.20;85.10
13115;DHT22;6623;52.120;8.660;2022-11-23T06:36:42;8.20;85.20
13115;DHT22;6623;52.120;8.660;2022-11-23T06:39:08;8.20;85.30
13115;DHT22;6623;52.120;8.660;2022-11-23T06:41:34;8.20;85.50
13115;DHT22;6623;52.120;8.660;2022-11-23T06:43:59;8.20;85.60
13115;DHT22;6623;52.120;8.660;2022-11-23T06:46:25;8.20;85.60
13115;DHT22;6623;52.120;8.660;2022-11-23T06:48:51;8.20;85.60
13115;DHT22;6623;52.120;8.660;2022-11-23T06:51:16;8.20;85.70
13115;DHT22;6623;52.120;8.660;2022-11-23T06:53:42;8.30;85.80
13115;DHT22;6623;52.120;8.660;2022-11-23T06:56:07;8.30;85.80
13115;DHT22;6623;52.120;8.660;2022-11-23T06:58:34;8.30;85.90
13115;DHT22;6623;52.120;8.660;2022-11-23T07:01:01;8.30;85.90
13115;DHT22;6623;52.120;8.660;2022-11-23T07:03:27;8.30;86.00
13115;DHT22;6623;52.120;8.660;2022-11-23T07:05:53;8.30;86.10
13115;DHT22;6623;52.120;8.660;2022-11-23T07:08:19;8.30;86.10
13115;DHT22;6623;52.120;8.660;2022-11-23T07:10:45;8.30;86.20
13115;DHT22;6623;52.120;8.660;2022-11-23T07:13:11;8.30;86.30
13115;DHT22;6623;52.120;8.660;2022-11-23T07:15:37;8.50;86.40
13115;DHT22;6623;52.120;8.660;2022-11-23T07:18:04;8.30;86.40
13115;DHT22;6623;52.120;8.660;2022-11-23T07:20:30;9.20;86.80
13115;DHT22;6623;52.120;8.660;2022-11-23T07:23:03;8.40;86.40
13115;DHT22;6623;52.120;8.660;2022-11-23T07:25:30;8.40;86.40
13115;DHT22;6623;52.120;8.660;2022-11-23T07:27:57;8.40;86.40
13115;DHT22;6623;52.120;8.660;2022-11-23T07:30:23;9.50;87.00
13115;DHT22;6623;52.120;8.660;2022-11-23T07:32:49;8.40;86.40
13115;DHT22;6623;52.120;8.660;2022-11-23T07:35:15;8.40;86.50
13115;DHT22;6623;52.120;8.660;2022-11-23T07:37:40;8.40;86.40
13115;DHT22;6623;52.120;8.660;2022-11-23T07:40:06;8.40;86.40
13115;DHT22;6623;52.120;8.660;2022-11-23T07:42:32;8.40;86.40
13115;DHT22;6623;52.120;8.660;2022-11-23T07:44:58;8.40;87.00
13115;DHT22;6623;52.120;8.660;2022-11-23T07:47:23;8.40;86.30
13115;DHT22;6623;52.120;8.660;2022-11-23T07:49:49;8.40;86.40
13115;DHT22;6623;52.120;8.660;2022-11-23T07:52:14;8.40;86.50
13115;DHT22;6623;52.120;8.660;2022-11-23T07:54:40;8.40;86.60
13115;DHT22;6623;52.120;8.660;2022-11-23T07:57:05;8.50;86.70
13115;DHT22;6623;52.120;8.660;2022-11-23T07:59:31;8.40;86.70
13115;DHT22;6623;52.120;8.660;2022-11-23T08:01:56;8.50;86.60
13115;DHT22;6623;52.120;8.660;2022-11-23T08:04:22;8.50;86.60
13115;DHT22;6623;52.120;8.660;2022-11-23T08:06:47;8.50;86.60
13115;DHT22;6623;52.120;8.660;2022-11-23T08:09:13;8.50;86.50
13115;DHT22;6623;52.120;8.660;2022-11-23T08:11:39;8.50;86.50
13115;DHT22;6623;52.120;8.660;2022-11-23T08:14:05;8.50;86.50
13115;DHT22;6623;52.120;8.660;2022-11-23T08:16:33;8.60;86.40
13115;DHT22;6623;52.120;8.660;2022-11-23T08:18:59;8.60;86.40
13115;DHT22;6623;52.120;8.660;2022-11-23T08:21:24;10.10;87.30
13115;DHT22;6623;52.120;8.660;2022-11-23T08:23:50;8.40;86.30
13115;DHT22;6623;52.120;8.660;2022-11-23T08:26:16;8.60;86.40
13115;DHT22;6623;52.120;8.660;2022-11-23T08:28:41;8.60;86.40
13115;DHT22;6623;52.120;8.660;2022-11-23T08:31:08;8.60;86.50
13115;DHT22;6623;52.120;8.660;2022-11-23T08:33:35;8.60;86.50
13115;DHT22;6623;52.120;8.660;2022-11-23T08:36:05;8.60;86.40
13115;DHT22;6623;52.120;8.660;2022-11-23T08:38:32;8.70;86.50
13115;DHT22;6623;52.120;8.660;2022-11-23T08:40:59;8.70;86.50
13115;DHT22;6623;52.120;8.660;2022-11-23T08:43:25;8.70;86.50
13115;DHT22;6623;52.120;8.660;2022-11-23T08:45:56;8.70;86.60
13115;DHT22;6623;52.120;8.660;2022-11-23T08:48:22;8.80;86.70
13115;DHT22;6623;52.120;8.660;2022-11-23T08:50:47;8.80;86.70
13115;DHT22;6623;52.120;8.660;2022-11-23T08:53:13;8.90;86.70
13115;DHT22;6623;52.120;8.660;2022-11-23T08:55:39;8.90;86.60
13115;DHT22;6623;52.120;8.660;2022-11-23T08:58:04;9.00;86.50
13115;DHT22;6623;52.120;8.660;2022-11-23T09:00:31;8.90;86.30
13115;DHT22;6623;52.120;8.660;2022-11-23T09:02:57;9.00;86.30
13115;DHT22;6623;52.120;8.660;2022-11-23T09:05:23;9.00;86.20
13115;DHT22;6623;52.120;8.660;2022-11-23T09:07:49;9.00;86.10
13115;DHT22;6623;52.120;8.660;2022-11-23T09:10:15;9.00;86.00
13115;DHT22;6623;52.120;8.660;2022-11-23T09:12:41;9.00;85.90
13115;DHT22;6623;52.120;8.660;2022-11-23T09:15:07;9.10;85.90
13115;DHT22;6623;52.120;8.660;2022-11-23T09:17:33;9.00;85.70
13115;DHT22;6623;52.120;8.660;2022-11-23T09:19:59;9.10;85.70
13115;DHT22;6623;52.120;8.660;2022-11-23T09:22:24;9.10;85.60
13115;DHT22;6623;52.120;8.660;2022-11-23T09:24:51;9.10;85.50
13115;DHT22;6623;52.120;8.660;2022-11-23T09:27:17;9.10;85.40
13115;DHT22;6623;52.120;8.660;2022-11-23T09:29:43;9.10;85.40
13115;DHT22;6623;52.120;8.660;2022-11-23T09:32:08;9.10;85.50
13115;DHT22;6623;52.120;8.660;2022-11-23T09:34:34;9.20;85.50
13115;DHT22;6623;52.120;8.660;2022-11-23T09:37:00;9.20;85.40
13115;DHT22;6623;52.120;8.660;2022-11-23T09:39:25;9.30;85.40
13115;DHT22;6623;52.120;8.660;2022-11-23T09:42:12;9.20;85.30
13115;DHT22;6623;52.120;8.660;2022-11-23T09:45:04;9.30;85.30
13115;DHT22;6623;52.120;8.660;2022-11-23T09:50:45;9.30;85.10
13115;DHT22;6623;52.120;8.660;2022-11-23T09:53:19;9.40;85.00
13115;DHT22;6623;52.120;8.660;2022-11-23T09:55:51;9.40;85.00
13115;DHT22;6623;52.120;8.660;2022-11-23T09:58:20;9.40;85.00
13115;DHT22;6623;52.120;8.660;2022-11-23T10:03:16;9.50;85.10
13115;DHT22;6623;52.120;8.660;2022-11-23T10:05:49;9.60;85.20
13115;DHT22;6623;52.120;8.660;2022-11-23T10:22:57;9.90;85.30
13115;DHT22;6623;52.120;8.660;2022-11-23T10:25:23;9.90;85.00
13115;DHT22;6623;52.120;8.660;2022-11-23T10:27:52;9.90;84.20
13115;DHT22;6623;52.120;8.660;2022-11-23T10:30:19;10.00;84.10
13115;DHT22;6623;52.120;8.660;2022-11-23T10:35:33;10.00;83.60
13115;DHT22;6623;52.120;8.660;2022-11-23T10:38:13;9.90;83.40
13115;DHT22;6623;52.120;8.660;2022-11-23T10:40:44;9.90;83.10
13115;DHT22;6623;52.120;8.660;2022-11-23T10:43:21;9.90;83.10
13115;DHT22;6623;52.120;8.660;2022-11-23T10:45:48;9.90;83.00
13115;DHT22;6623;52.120;8.660;2022-11-23T10:48:33;10.00;82.90
13115;DHT22;6623;52.120;8.660;2022-11-23T10:51:16;10.00;82.60
13115;DHT22;6623;52.120;8.660;2022-11-23T10:53:55;9.90;82.20
13115;DHT22;6623;52.120;8.660;2022-11-23T10:56:21;9.90;82.10
13115;DHT22;6623;52.120;8.660;2022-11-23T10:58:47;9.80;82.00
13115;DHT22;6623;52.120;8.660;2022-11-23T11:01:16;9.80;81.90
13115;DHT22;6623;52.120;8.660;2022-11-23T11:03:43;10.60;82.40
13115;DHT22;6623;52.120;8.660;2022-11-23T11:06:09;9.80;81.90
13115;DHT22;6623;52.120;8.660;2022-11-23T11:08:47;9.80;81.90
13115;DHT22;6623;52.120;8.660;2022-11-23T11:11:29;9.80;81.80
13115;DHT22;6623;52.120;8.660;2022-11-23T11:14:13;9.70;81.50
13115;DHT22;6623;52.120;8.660;2022-11-23T11:16:47;9.70;81.30
13115;DHT22;6623;52.120;8.660;2022-11-23T11:19:33;10.20;81.50
13115;DHT22;6623;52.120;8.660;2022-11-23T11:22:01;9.70;81.00
13115;DHT22;6623;52.120;8.660;2022-11-23T11:24:35;9.70;81.00
13115;DHT22;6623;52.120;8.660;2022-11-23T11:27:04;9.60;80.80
13115;DHT22;6623;52.120;8.660;2022-11-23T11:32:13;9.70;80.90
13115;DHT22;6623;52.120;8.660;2022-11-23T11:35:02;9.70;80.70
13115;DHT22;6623;52.120;8.660;2022-11-23T11:37:40;9.80;80.50
13115;DHT22;6623;52.120;8.660;2022-11-23T11:43:31;9.90;80.40
13115;DHT22;6623;52.120;8.660;2022-11-23T11:46:08;10.00;80.50
13115;DHT22;6623;52.120;8.660;2022-11-23T11:48:38;10.00;79.60
13115;DHT22;6623;52.120;8.660;2022-11-23T11:51:29;10.00;79.00
13115;DHT22;6623;52.120;8.660;2022-11-23T11:54:17;10.00;78.40
13115;DHT22;6623;52.120;8.660;2022-11-23T11:56:49;10.00;78.00
13115;DHT22;6623;52.120;8.660;2022-11-23T11:59:28;10.00;77.60
13115;DHT22;6623;52.120;8.660;2022-11-23T12:04:46;10.00;77.20
13115;DHT22;6623;52.120;8.660;2022-11-23T12:09:51;10.00;76.90
13115;DHT22;6623;52.120;8.660;2022-11-23T12:12:20;10.00;76.60
13115;DHT22;6623;52.120;8.660;2022-11-23T12:14:46;9.90;76.40
13115;DHT22;6623;52.120;8.660;2022-11-23T12:20:22;10.00;76.00
13115;DHT22;6623;52.120;8.660;2022-11-23T12:45:16;10.10;74.70
13115;DHT22;6623;52.120;8.660;2022-11-23T12:50:41;10.20;75.10
13115;DHT22;6623;52.120;8.660;2022-11-23T12:56:16;10.30;74.80
13115;DHT22;6623;52.120;8.660;2022-11-23T12:58:44;10.40;74.40
13115;DHT22;6623;52.120;8.660;2022-11-23T13:12:01;10.30;73.10
13115;DHT22;6623;52.120;8.660;2022-11-23T13:14:55;10.30;73.00
13115;DHT22;6623;52.120;8.660;2022-11-23T13:22:52;10.20;72.50
13115;DHT22;6623;52.120;8.660;2022-11-23T13:25:23;10.20;72.30
13115;DHT22;6623;52.120;8.660;2022-11-23T13:33:01;10.10;72.10
13115;DHT22;6623;52.120;8.660;2022-11-23T13:35:47;10.10;72.30
13115;DHT22;6623;52.120;8.660;2022-11-23T13:40:42;10.10;72.50
13115;DHT22;6623;52.120;8.660;2022-11-23T13:48:47;10.10;73.10
13115;DHT22;6623;52.120;8.660;2022-11-23T13:51:28;10.10;73.20
13115;DHT22;6623;52.120;8.660;2022-11-23T14:09:56;10.00;73.10
13115;DHT22;6623;52.120;8.660;2022-11-23T14:12:45;10.00;73.30
13115;DHT22;6623;52.120;8.660;2022-11-23T14:15:15;10.10;73.60
13115;DHT22;6623;52.120;8.660;2022-11-23T14:21:05;10.20;73.90
13115;DHT22;6623;52.120;8.660;2022-11-23T14:31:35;10.20;72.90
13115;DHT22;6623;52.120;8.660;2022-11-23T14:34:19;10.10;72.70
13115;DHT22;6623;52.120;8.660;2022-11-23T14:42:24;10.00;73.10
13115;DHT22;6623;52.120;8.660;2022-11-23T14:44:51;10.00;73.10
13115;DHT22;6623;52.120;8.660;2022-11-23T14:47:25;10.00;72.90
13115;DHT22;6623;52.120;8.660;2022-11-23T14:49:52;10.00;72.60
13115;DHT22;6623;52.120;8.660;2022-11-23T14:52:26;9.90;72.40
13115;DHT22;6623;52.120;8.660;2022-11-23T14:54:54;9.80;72.20
13115;DHT22;6623;52.120;8.660;2022-11-23T14:57:23;9.90;72.30
13115;DHT22;6623;52.120;8.660;2022-11-23T14:59:59;9.70;72.20
13115;DHT22;6623;52.120;8.660;2022-11-23T15:05:04;9.60;72.20
13115;DHT22;6623;52.120;8.660;2022-11-23T15:12:58;9.40;72.30
13115;DHT22;6623;52.120;8.660;2022-11-23T15:15:25;9.30;72.40
13115;DHT22;6623;52.120;8.660;2022-11-23T15:17:56;9.30;72.40
13115;DHT22;6623;52.120;8.660;2022-11-23T15:20:27;9.20;72.40
13115;DHT22;6623;52.120;8.660;2022-11-23T15:22:53;9.20;72.40
13115;DHT22;6623;52.120;8.660;2022-11-23T15:25:19;9.10;72.40
13115;DHT22;6623;52.120;8.660;2022-11-23T15:27:46;9.10;72.40
13115;DHT22;6623;52.120;8.660;2022-11-23T15:30:17;9.00;72.40
13115;DHT22;6623;52.120;8.660;2022-11-23T15:32:43;9.00;72.50
13115;DHT22;6623;52.120;8.660;2022-11-23T15:35:29;9.00;72.60
13115;DHT22;6623;52.120;8.660;2022-11-23T15:37:55;8.90;72.60
13115;DHT22;6623;52.120;8.660;2022-11-23T15:40:22;8.90;72.70
13115;DHT22;6623;52.120;8.660;2022-11-23T15:42:51;8.90;72.80
13115;DHT22;6623;52.120;8.660;2022-11-23T15:50:50;8.70;73.10
13115;DHT22;6623;52.120;8.660;2022-11-23T15:53:16;8.70;73.20
13115;DHT22;6623;52.120;8.660;2022-11-23T15:55:42;8.70;73.30
13115;DHT22;6623;52.120;8.660;2022-11-23T15:58:08;8.60;73.30
13115;DHT22;6623;52.120;8.660;2022-11-23T16:00:38;8.60;73.40
13115;DHT22;6623;52.120;8.660;2022-11-23T16:08:37;8.50;73.60
13115;DHT22;6623;52.120;8.660;2022-11-23T16:13:43;8.40;73.80
13115;DHT22;6623;52.120;8.660;2022-11-23T16:16:16;8.40;73.80
13115;DHT22;6623;52.120;8.660;2022-11-23T16:18:47;8.40;73.90
13115;DHT22;6623;52.120;8.660;2022-11-23T16:21:23;8.30;74.00
13115;DHT22;6623;52.120;8.660;2022-11-23T16:23:52;8.30;74.10
13115;DHT22;6623;52.120;8.660;2022-11-23T16:26:27;8.30;74.20
13115;DHT22;6623;52.120;8.660;2022-11-23T16:28:55;8.20;74.20
13115;DHT22;6623;52.120;8.660;2022-11-23T16:31:38;8.20;74.30
13115;DHT22;6623;52.120;8.660;2022-11-23T16:34:09;8.20;74.40
13115;DHT22;6623;52.120;8.660;2022-11-23T16:36:37;8.10;74.40
13115;DHT22;6623;52.120;8.660;2022-11-23T16:39:02;8.10;74.40
13115;DHT22;6623;52.120;8.660;2022-11-23T16:41:28;8.10;74.50
13115;DHT22;6623;52.120;8.660;2022-11-23T16:43:54;8.00;74.40
13115;DHT22;6623;52.120;8.660;2022-11-23T16:46:19;8.00;74.60
13115;DHT22;6623;52.120;8.660;2022-11-23T16:48:45;8.00;74.60
13115;DHT22;6623;52.120;8.660;2022-11-23T16:51:11;8.00;74.60
13115;DHT22;6623;52.120;8.660;2022-11-23T16:53:43;7.90;74.70
13115;DHT22;6623;52.120;8.660;2022-11-23T16:56:19;7.90;74.70
13115;DHT22;6623;52.120;8.660;2022-11-23T16:58:46;7.90;74.80
13115;DHT22;6623;52.120;8.660;2022-11-23T17:01:24;7.90;74.90
13115;DHT22;6623;52.120;8.660;2022-11-23T17:03:50;7.80;74.90
13115;DHT22;6623;52.120;8.660;2022-11-23T17:06:16;7.80;74.90
13115;DHT22;6623;52.120;8.660;2022-11-23T17:08:45;7.80;75.00
13115;DHT22;6623;52.120;8.660;2022-11-23T17:11:19;7.70;75.20
13115;DHT22;6623;52.120;8.660;2022-11-23T17:13:46;7.70;75.30
13115;DHT22;6623;52.120;8.660;2022-11-23T17:16:17;7.70;75.40
13115;DHT22;6623;52.120;8.660;2022-11-23T17:18:43;7.60;75.30
13115;DHT22;6623;52.120;8.660;2022-11-23T17:21:09;7.60;75.40
13115;DHT22;6623;52.120;8.660;2022-11-23T17:23:35;7.50;75.40
13115;DHT22;6623;52.120;8.660;2022-11-23T17:26:04;7.50;75.50
13115;DHT22;6623;52.120;8.660;2022-11-23T17:28:29;7.50;76.30
13115;DHT22;6623;52.120;8.660;2022-11-23T17:30:55;7.50;75.60
13115;DHT22;6623;52.120;8.660;2022-11-23T17:33:21;7.50;75.80
13115;DHT22;6623;52.120;8.660;2022-11-23T17:35:46;7.50;76.00
13115;DHT22;6623;52.120;8.660;2022-11-23T17:38:14;7.50;76.20
13115;DHT22;6623;52.120;8.660;2022-11-23T17:40:41;7.50;76.40
13115;DHT22;6623;52.120;8.660;2022-11-23T17:43:07;7.50;76.40
13115;DHT22;6623;52.120;8.660;2022-11-23T17:45:36;7.50;76.30
13115;DHT22;6623;52.120;8.660;2022-11-23T17:48:02;7.50;76.40
13115;DHT22;6623;52.120;8.660;2022-11-23T17:50:27;7.50;76.60
13115;DHT22;6623;52.120;8.660;2022-11-23T17:52:53;7.50;76.80
13115;DHT22;6623;52.120;8.660;2022-11-23T17:55:18;7.50;77.10
13115;DHT22;6623;52.120;8.660;2022-11-23T17:57:44;7.50;77.20
13115;DHT22;6623;52.120;8.660;2022-11-23T18:00:17;7.60;77.50
13115;DHT22;6623;52.120;8.660;2022-11-23T18:02:43;7.70;77.60
13115;DHT22;6623;52.120;8.660;2022-11-23T18:05:09;7.70;77.70
13115;DHT22;6623;52.120;8.660;2022-11-23T18:07:35;7.80;77.70
13115;DHT22;6623;52.120;8.660;2022-11-23T18:10:01;7.80;77.80
13115;DHT22;6623;52.120;8.660;2022-11-23T18:12:27;7.90;77.80
13115;DHT22;6623;52.120;8.660;2022-11-23T18:14:52;7.90;77.80
13115;DHT22;6623;52.120;8.660;2022-11-23T18:17:18;7.90;77.70
13115;DHT22;6623;52.120;8.660;2022-11-23T18:19:47;8.00;77.80
13115;DHT22;6623;52.120;8.660;2022-11-23T18:22:13;8.00;77.80
13115;DHT22;6623;52.120;8.660;2022-11-23T18:24:38;8.00;77.80
13115;DHT22;6623;52.120;8.660;2022-11-23T18:27:04;8.00;77.70
13115;DHT22;6623;52.120;8.660;2022-11-23T18:29:29;8.10;77.80
13115;DHT22;6623;52.120;8.660;2022-11-23T18:31:55;8.10;77.70
13115;DHT22;6623;52.120;8.660;2022-11-23T18:34:20;8.10;77.60
13115;DHT22;6623;52.120;8.660;2022-11-23T18:36:46;8.10;77.60